Meath Environmental Platform

Observations for Trim Market St

Time AQI Temp °C Hum % Pres Pa CO μg/m³ H₂S μg/m³ NO μg/m³ NO₂ μg/m³ O₃ μg/m³ SO₂ μg/m³ PM1 μg/m³ PM2.5 μg/m³ PM10 μg/m³
Sunday 12 July 2026
16:44 1 34 32 66,280 0 0 0 0 31.87 0 0.71 4.29 4.72
16:43 1 34 32 66,284 0 0 0 1.62 41.6 0 1.43 4.83 4.97
16:42 1 34.1 32 66,315 0 0 0 0 26.72 0 0.71 3.75 4.13
16:41 1 34.1 32 66,303 0 0 0 0.58 34.92 0 0.71 4.28 5.83
16:40 1 34.2 32 66,313 0 0 0 0 30.7 0 1.43 4.28 4.71
16:39 1 34.2 33 66,301 0 0 0 0.04 28.86 0 1.43 4.28 4.98
16:38 1 34.2 33 66,307 0 0 0 0 31.99 0 0.71 4.81 5.29
16:37 1 34.2 33 66,313 0 0 0 2.73 39.06 0 0.71 4.27 4.7
16:35 1 34.2 33 66,292 0 0 0 2.62 30.82 0 0.71 3.73 4.1
16:30 1 34.2 33 66,270 0 0 0 3.44 36.74 0 0.71 3.74 4.98
16:28 1 34.2 32 66,329 0 0 0 0 29.34 0 0.71 4.82 5.83
16:27 1 34.2 33 66,317 0 0 0 2.34 39.82 0 2.14 4.82 5.3
16:20 1 34.3 32 66,349 0 0 0 2.64 34.01 0 1.43 4.83 5.31
16:19 1 34.3 32 66,339 0 0 0 0.05 38.88 0 3.56 6.99 7.52
16:18 1 34.3 32 66,327 0 0 0 0.96 33.2 0 2.14 5.38 5.82
16:17 1 34.4 32 66,341 0 0 0 3.44 38.37 0 1.43 4.84 5.32
16:16 1 34.4 32 66,360 0 0 0 1.45 35.69 0 2.14 4.84 5.33
16:15 1 34.4 32 66,355 0 0 0 0.47 36.29 0 2.85 6.47 6.67
16:14 1 34.5 32 66,374 0 0 0 0.64 33.91 0 2.14 4.85 6.67
16:13 1 34.5 32 66,400 0 0 0 0 38.25 0 2.85 5.94 6.53